Time;durP1;ratioP1;P1;durP2;ratioP2;P2;SDS_P1;SDS_P2;PMS_P1;PMS_P2;Temp;Humidity;BMP_temperature;BMP_pressure;BME280_temperature;BME280_humidity;BME280_pressure;Samples;Min_cycle;Max_cycle;Signal;HPM_P1;HPM_P2
2023/07/14 00:03:56;;;;;;;4.72;2.28;;;;;;;17.22;94.76;100766.84;8331490;28;20624;-61
2023/07/14 00:07:57;;;;;;;5.70;2.20;;;;;;;17.22;95.02;100758.66;8344343;28;20041;-61
2023/07/14 00:11:58;;;;;;;11.10;2.08;;;;;;;17.13;95.16;100773.38;8350106;28;20042;-62
2023/07/14 00:15:59;;;;;;;5.80;2.30;;;;;;;17.13;95.25;100760.56;8334298;28;20040;-61
2023/07/14 00:19:59;;;;;;;6.03;2.22;;;;;;;17.07;96.33;100774.06;8347496;28;20037;-61
2023/07/14 00:24:00;;;;;;;5.43;2.10;;;;;;;17.05;96.24;100776.16;8347996;28;20124;-61
2023/07/14 00:28:01;;;;;;;4.07;2.25;;;;;;;17.16;95.16;100773.03;8334623;28;20347;-62
2023/07/14 00:32:15;;;;;;;6.95;2.30;;;;;;;17.26;94.79;100777.25;8343746;28;20048;-61
2023/07/14 00:36:17;;;;;;;2.63;1.83;;;;;;;17.23;95.97;100768.56;8338930;28;20447;-62
2023/07/14 00:40:23;;;;;;;7.22;2.13;;;;;;;17.20;95.96;100779.84;8333751;28;20172;-62
2023/07/14 00:44:24;;;;;;;8.85;2.83;;;;;;;17.27;95.15;100769.91;8347319;28;20599;-61
2023/07/14 00:48:28;;;;;;;4.85;1.80;;;;;;;17.23;95.30;100771.31;8350330;28;20041;-62
2023/07/14 00:52:33;;;;;;;5.25;2.20;;;;;;;17.31;94.94;100761.19;8338681;28;20373;-60
2023/07/14 00:56:43;;;;;;;4.50;2.03;;;;;;;17.37;95.53;100765.06;8346962;28;20043;-60
2023/07/14 01:01:09;;;;;;;13.25;2.67;;;;;;;17.20;98.30;100764.28;8340812;28;20037;-59
2023/07/14 01:05:11;;;;;;;6.70;2.83;;;;;;;17.21;98.37;100762.44;8307819;28;20495;-60
2023/07/14 01:09:13;;;;;;;5.05;2.55;;;;;;;17.27;97.60;100753.53;8343177;28;20038;-60
2023/07/14 01:13:15;;;;;;;4.70;2.13;;;;;;;17.37;93.96;100759.63;8333300;28;20065;-60
2023/07/14 01:17:16;;;;;;;5.03;1.90;;;;;;;17.44;93.45;100757.88;8340490;28;20410;-60
2023/07/14 01:21:21;;;;;;;3.88;2.00;;;;;;;17.49;93.42;100763.69;8349597;28;20083;-60
2023/07/14 01:25:54;;;;;;;8.63;2.05;;;;;;;17.17;95.31;100763.81;8330466;28;20499;-60
2023/07/14 01:29:56;;;;;;;6.93;2.20;;;;;;;17.16;97.11;100759.34;8340558;28;20533;-60
2023/07/14 01:33:58;;;;;;;4.85;1.92;;;;;;;17.19;95.37;100767.19;8350371;28;20040;-60
2023/07/14 01:37:58;;;;;;;4.10;2.13;;;;;;;17.19;95.74;100762.59;8339294;28;20506;-60
2023/07/14 01:41:59;;;;;;;4.53;2.35;;;;;;;17.35;95.97;100761.66;8356397;28;20120;-60
2023/07/14 01:46:02;;;;;;;7.75;2.35;;;;;;;17.19;95.68;100756.28;8357081;28;20457;-60
2023/07/14 01:50:05;;;;;;;7.38;2.08;;;;;;;17.09;96.45;100756.50;8353262;28;20131;-60
2023/07/14 01:54:35;;;;;;;3.80;2.55;;;;;;;17.07;96.30;100758.56;8355364;28;20491;-60
2023/07/14 01:58:57;;;;;;;9.45;2.15;;;;;;;17.02;98.39;100760.94;8359843;28;20041;-60
2023/07/14 02:02:59;;;;;;;4.35;1.73;;;;;;;16.74;99.84;100756.09;8358869;28;20061;-60
2023/07/14 02:07:01;;;;;;;5.22;2.33;;;;;;;16.52;100.00;100754.06;8362344;28;20120;-60
2023/07/14 02:11:03;;;;;;;9.60;2.60;;;;;;;16.47;100.00;100753.75;8362800;28;20049;-60
2023/07/14 02:15:07;;;;;;;4.70;2.20;;;;;;;16.36;100.00;100745.88;8362127;28;20041;-60
2023/07/14 02:19:14;;;;;;;5.07;2.60;;;;;;;16.29;100.00;100755.78;8357376;28;20036;-62
2023/07/14 02:23:25;;;;;;;4.57;2.03;;;;;;;16.20;100.00;100752.22;8357189;28;20043;-61
2023/07/14 02:27:25;;;;;;;6.22;2.50;;;;;;;16.07;100.00;100746.41;8363695;28;20033;-61
2023/07/14 02:31:33;;;;;;;5.45;2.30;;;;;;;16.10;100.00;100750.69;8358774;28;20045;-61
2023/07/14 02:36:06;;;;;;;4.32;2.30;;;;;;;16.04;100.00;100748.63;8362321;28;20048;-61
2023/07/14 02:40:08;;;;;;;5.82;2.25;;;;;;;15.99;100.00;100749.13;8361430;28;20535;-61
2023/07/14 02:44:13;;;;;;;6.30;2.35;;;;;;;15.86;100.00;100743.34;8346249;28;20434;-61
2023/07/14 02:48:18;;;;;;;3.03;2.22;;;;;;;15.89;100.00;100742.13;8357394;28;20038;-61
2023/07/14 02:52:19;;;;;;;4.55;2.80;;;;;;;15.75;100.00;100740.94;8358183;28;20041;-61
2023/07/14 02:56:20;;;;;;;4.93;2.40;;;;;;;15.68;100.00;100729.00;8361176;28;20072;-61
2023/07/14 03:00:20;;;;;;;4.05;2.20;;;;;;;15.67;100.00;100733.59;8357163;28;20071;-62
2023/07/14 03:04:21;;;;;;;4.82;2.10;;;;;;;15.47;100.00;100737.63;8360602;28;20060;-63
2023/07/14 03:08:22;;;;;;;9.73;2.67;;;;;;;15.30;100.00;100733.13;8359972;28;20075;-63
2023/07/14 03:12:22;;;;;;;4.13;2.85;;;;;;;15.41;100.00;100737.44;8359639;28;20041;-63
2023/07/14 03:16:23;;;;;;;5.65;2.33;;;;;;;15.23;100.00;100733.97;8357745;28;20395;-63
2023/07/14 03:20:23;;;;;;;4.97;2.72;;;;;;;15.17;100.00;100735.47;8356577;28;20040;-62
2023/07/14 03:24:25;;;;;;;6.43;2.80;;;;;;;15.04;100.00;100726.88;8358170;28;20474;-62
2023/07/14 03:28:25;;;;;;;7.22;3.20;;;;;;;15.06;100.00;100727.59;8360776;28;20413;-63
2023/07/14 03:32:26;;;;;;;3.75;2.67;;;;;;;15.11;100.00;100733.41;8357151;28;20138;-62
2023/07/14 03:36:26;;;;;;;8.88;2.83;;;;;;;15.05;100.00;100725.91;8358379;28;20124;-62
2023/07/14 03:40:27;;;;;;;3.63;2.25;;;;;;;14.90;100.00;100729.38;8359137;28;20053;-63
2023/07/14 03:44:27;;;;;;;5.63;2.35;;;;;;;14.88;100.00;100726.00;8359750;28;20593;-63
2023/07/14 03:48:28;;;;;;;5.03;2.58;;;;;;;14.84;100.00;100716.44;8358260;28;20379;-62
2023/07/14 03:52:28;;;;;;;6.15;3.00;;;;;;;14.75;100.00;100720.97;8354491;28;20384;-62
2023/07/14 03:56:29;;;;;;;6.22;2.83;;;;;;;14.77;100.00;100727.13;8337344;28;20117;-63
2023/07/14 04:00:30;;;;;;;5.68;3.13;;;;;;;14.80;100.00;100721.38;8342683;28;20048;-62
2023/07/14 04:04:31;;;;;;;5.32;3.10;;;;;;;14.75;100.00;100723.72;8344014;28;20044;-62
2023/07/14 04:08:38;;;;;;;3.53;2.50;;;;;;;14.70;100.00;100720.59;8358913;28;20099;-61
2023/07/14 04:12:39;;;;;;;7.93;2.70;;;;;;;14.76;100.00;100719.97;8355502;28;20041;-62
2023/07/14 04:16:39;;;;;;;4.70;2.67;;;;;;;14.79;100.00;100713.34;8355720;28;20061;-62
2023/07/14 04:20:40;;;;;;;6.28;2.45;;;;;;;14.78;100.00;100717.94;8334516;28;20462;-62
2023/07/14 04:24:40;;;;;;;4.93;2.63;;;;;;;14.81;100.00;100717.63;8358480;28;20047;-62
2023/07/14 04:28:41;;;;;;;5.65;3.15;;;;;;;14.99;100.00;100715.66;8355145;28;20098;-62
2023/07/14 04:32:43;;;;;;;7.25;3.00;;;;;;;15.22;100.00;100714.03;8354590;28;20486;-62
2023/07/14 04:36:45;;;;;;;6.43;3.45;;;;;;;15.38;100.00;100716.84;8350680;28;20059;-62
2023/07/14 04:40:46;;;;;;;3.70;2.70;;;;;;;15.57;100.00;100718.41;8356751;28;20041;-62
2023/07/14 04:44:46;;;;;;;4.60;2.78;;;;;;;15.69;99.30;100725.25;8354910;28;20045;-62
2023/07/14 04:48:48;;;;;;;5.43;2.95;;;;;;;15.77;98.71;100723.38;8354566;28;20044;-62
2023/07/14 04:52:48;;;;;;;8.32;2.63;;;;;;;16.02;99.07;100709.75;8349686;28;20064;-62
2023/07/14 04:56:50;;;;;;;5.10;2.60;;;;;;;16.13;97.14;100714.88;8353457;28;20052;-63
2023/07/14 05:00:50;;;;;;;7.55;2.95;;;;;;;16.33;96.26;100710.75;8351927;28;20588;-63
2023/07/14 05:05:12;;;;;;;5.38;2.88;;;;;;;16.72;94.78;100698.94;8351241;28;20041;-62
2023/07/14 05:09:13;;;;;;;3.47;2.10;;;;;;;16.87;94.42;100704.50;8379235;28;20033;-63
2023/07/14 05:13:14;;;;;;;6.07;2.50;;;;;;;17.03;92.12;100696.25;8353437;28;20049;-64
2023/07/14 05:17:14;;;;;;;7.95;2.55;;;;;;;17.30;93.16;100684.84;8352307;28;20123;-64
2023/07/14 05:21:15;;;;;;;13.55;2.78;;;;;;;17.69;91.15;100682.03;8346994;28;20048;-64
2023/07/14 05:25:16;;;;;;;3.30;2.65;;;;;;;18.00;88.48;100694.63;8349875;28;20037;-63
2023/07/14 05:29:16;;;;;;;4.25;2.20;;;;;;;18.08;88.61;100689.06;8360279;28;20051;-64
2023/07/14 05:33:18;;;;;;;5.40;2.47;;;;;;;18.30;88.77;100688.16;8357778;28;20037;-64
2023/07/14 05:37:19;;;;;;;4.28;2.63;;;;;;;18.41;88.47;100689.63;8361117;28;20036;-64
2023/07/14 05:41:20;;;;;;;4.82;2.25;;;;;;;18.32;87.40;100686.09;8361680;28;20222;-65
2023/07/14 05:45:20;;;;;;;6.20;2.63;;;;;;;18.33;87.88;100692.44;8359690;28;20560;-64
2023/07/14 05:49:21;;;;;;;5.60;2.30;;;;;;;18.47;87.55;100689.75;8357150;28;20044;-64
2023/07/14 05:53:21;;;;;;;9.32;2.90;;;;;;;18.71;86.91;100691.38;8358614;28;20029;-64
2023/07/14 05:57:22;;;;;;;5.22;2.13;;;;;;;18.65;87.04;100687.50;8341988;28;20045;-64
2023/07/14 06:01:22;;;;;;;5.57;2.40;;;;;;;19.03;86.94;100691.81;8358470;28;20033;-64
2023/07/14 06:05:24;;;;;;;3.42;2.30;;;;;;;19.26;85.66;100692.59;8357649;28;20044;-64
2023/07/14 06:09:24;;;;;;;2.53;1.90;;;;;;;19.83;82.80;100692.59;8355397;28;20063;-63
2023/07/14 06:13:24;;;;;;;5.60;2.28;;;;;;;20.15;81.29;100688.47;8356732;28;20036;-63
2023/07/14 06:17:25;;;;;;;5.43;2.10;;;;;;;20.34;79.76;100683.13;8357227;28;20045;-64
2023/07/14 06:21:26;;;;;;;4.68;2.10;;;;;;;20.70;78.36;100680.22;8354852;28;20645;-65
2023/07/14 06:25:26;;;;;;;3.08;1.98;;;;;;;20.57;78.40;100682.88;8357584;28;20123;-64
2023/07/14 06:29:27;;;;;;;7.25;2.28;;;;;;;20.41;77.01;100673.06;8350372;28;20080;-64
2023/07/14 06:33:28;;;;;;;6.35;2.40;;;;;;;20.46;77.76;100664.22;8352585;28;20453;-64
2023/07/14 06:37:29;;;;;;;6.07;1.92;;;;;;;20.85;76.12;100661.72;8356373;28;20041;-64
2023/07/14 06:41:29;;;;;;;4.03;2.17;;;;;;;20.84;76.86;100660.03;8356759;28;20043;-64
2023/07/14 06:45:30;;;;;;;4.63;2.33;;;;;;;20.92;76.17;100655.19;8354221;28;20505;-64
2023/07/14 06:49:30;;;;;;;4.75;1.55;;;;;;;20.70;75.54;100650.84;8356084;28;20047;-63
2023/07/14 06:53:31;;;;;;;3.03;1.75;;;;;;;20.81;76.55;100646.69;8355294;28;20095;-64
2023/07/14 06:57:32;;;;;;;5.57;2.13;;;;;;;21.22;74.00;100628.28;8356272;28;20044;-63
2023/07/14 07:01:33;;;;;;;6.03;2.03;;;;;;;21.72;73.89;100641.53;8351587;28;20037;-64
2023/07/14 07:05:37;;;;;;;3.33;1.77;;;;;;;22.26;72.09;100628.44;8355634;28;20162;-64
2023/07/14 07:09:38;;;;;;;7.88;2.22;;;;;;;22.41;71.97;100628.19;8350339;28;20048;-64
2023/07/14 07:13:39;;;;;;;8.15;1.80;;;;;;;22.25;71.10;100635.00;8354254;28;20115;-65
2023/07/14 07:17:41;;;;;;;3.20;1.75;;;;;;;22.66;68.42;100635.59;8354189;28;20033;-65
2023/07/14 07:21:42;;;;;;;3.45;2.05;;;;;;;22.88;68.74;100634.25;8354103;28;20043;-65
2023/07/14 07:25:47;;;;;;;5.28;1.85;;;;;;;23.19;66.29;100628.00;8354179;28;20036;-64
2023/07/14 07:29:48;;;;;;;3.53;1.80;;;;;;;23.33;65.64;100620.53;8353515;28;20041;-64
2023/07/14 07:33:48;;;;;;;6.95;1.60;;;;;;;23.18;66.38;100618.03;8351074;28;20041;-64
2023/07/14 07:37:49;;;;;;;3.80;1.60;;;;;;;23.02;65.93;100622.13;8353801;28;20091;-65
2023/07/14 07:41:49;;;;;;;5.43;1.75;;;;;;;23.28;64.99;100618.44;8354797;28;20037;-64
2023/07/14 07:45:50;;;;;;;3.35;1.67;;;;;;;23.58;65.74;100608.50;8354685;28;20392;-64
2023/07/14 07:49:50;;;;;;;7.53;1.87;;;;;;;23.97;63.33;100601.84;8348933;28;20041;-64
2023/07/14 07:53:51;;;;;;;4.28;1.73;;;;;;;24.04;63.35;100591.59;8355776;28;20295;-64
2023/07/14 07:57:52;;;;;;;8.40;2.40;;;;;;;24.10;61.61;100594.31;8355050;28;20060;-63
2023/07/14 08:01:52;;;;;;;5.22;1.70;;;;;;;24.01;64.12;100586.50;8349431;28;20037;-63
2023/07/14 08:05:58;;;;;;;5.75;1.60;;;;;;;23.99;62.05;100578.44;8348862;28;20297;-63
2023/07/14 08:09:58;;;;;;;3.40;1.40;;;;;;;24.40;62.61;100577.84;8352411;28;20460;-63
2023/07/14 08:14:01;;;;;;;5.43;1.63;;;;;;;24.74;59.78;100574.50;8353246;28;20041;-63
2023/07/14 08:18:02;;;;;;;10.13;2.08;;;;;;;24.59;60.37;100569.34;8350843;28;20041;-64
2023/07/14 08:22:02;;;;;;;17.88;3.42;;;;;;;24.59;60.33;100574.03;8352390;28;20041;-63
2023/07/14 08:26:04;;;;;;;21.05;2.80;;;;;;;24.35;59.74;100566.63;8349307;28;20041;-65
2023/07/14 08:30:06;;;;;;;6.43;1.45;;;;;;;24.41;60.73;100565.72;8354207;28;20037;-64
2023/07/14 08:34:08;;;;;;;23.20;2.33;;;;;;;24.98;59.65;100571.63;8352008;28;20522;-64
2023/07/14 08:38:09;;;;;;;11.60;1.90;;;;;;;25.17;59.42;100561.38;8369309;28;20041;-64
2023/07/14 08:42:30;;;;;;;2.72;1.58;;;;;;;24.93;58.42;100552.13;8369559;28;20545;-62
2023/07/14 08:46:46;;;;;;;4.20;2.03;;;;;;;25.66;57.37;100554.72;8366942;28;20100;-63
2023/07/14 08:50:49;;;;;;;12.45;2.10;;;;;;;25.55;57.61;100548.06;8363644;28;20114;-63
2023/07/14 08:55:12;;;;;;;4.55;1.58;;;;;;;25.48;58.86;100546.47;8363928;28;20102;-64
2023/07/14 08:59:20;;;;;;;15.88;2.42;;;;;;;26.15;57.11;100540.47;8362399;28;20036;-64
2023/07/14 09:03:37;;;;;;;4.22;1.70;;;;;;;25.67;55.51;100540.63;8364935;28;20094;-64
2023/07/14 09:07:38;;;;;;;4.03;1.73;;;;;;;25.55;56.94;100534.22;8352017;28;20097;-64
2023/07/14 09:11:52;;;;;;;5.63;1.85;;;;;;;25.78;56.11;100531.50;8350787;28;20114;-65
2023/07/14 09:15:53;;;;;;;9.68;1.50;;;;;;;26.35;55.42;100527.09;8352095;28;20049;-64
2023/07/14 09:20:33;;;;;;;6.22;1.10;;;;;;;26.64;54.13;100526.09;8349818;28;20071;-64
2023/07/14 09:25:13;;;;;;;14.18;2.72;;;;;;;26.21;53.74;100520.94;8345678;28;20068;-64
2023/07/14 09:29:20;;;;;;;385.30;22.35;;;;;;;26.31;53.21;100517.53;8344721;28;20065;-65
2023/07/14 09:33:22;;;;;;;10.88;1.45;;;;;;;26.07;52.56;100519.50;8349842;28;20049;-62
2023/07/14 09:37:32;;;;;;;13.48;1.77;;;;;;;26.13;52.25;100507.44;8351339;28;20044;-63
2023/07/14 09:41:33;;;;;;;79.28;4.78;;;;;;;26.33;51.92;100512.59;8350841;28;20057;-63
2023/07/14 09:45:36;;;;;;;5.50;1.40;;;;;;;26.44;53.13;100509.81;8350867;28;20249;-61
2023/07/14 09:49:45;;;;;;;72.07;6.18;;;;;;;26.75;49.90;100484.44;8348397;28;20041;-63
2023/07/14 09:54:00;;;;;;;10.75;1.60;;;;;;;27.85;49.38;100493.16;8350435;28;20029;-66
2023/07/14 09:58:01;;;;;;;126.65;7.93;;;;;;;27.89;49.47;100480.44;8350628;28;20037;-65
2023/07/14 10:02:01;;;;;;;9.32;1.50;;;;;;;28.59;46.88;100481.50;8347369;28;20094;-64
2023/07/14 10:06:11;;;;;;;45.83;3.90;;;;;;;29.40;47.18;100484.09;8349960;28;20125;-63
2023/07/14 10:10:14;;;;;;;10.93;2.05;;;;;;;29.72;45.16;100482.19;8346492;28;20411;-65
2023/07/14 10:18:45;;;;;;;2.00;1.10;;;;;;;28.62;46.81;100472.63;8327149;27;20386;-65
2023/07/14 10:22:50;;;;;;;7.03;1.38;;;;;;;28.89;47.08;100467.09;8329000;28;20052;-65
2023/07/14 10:26:57;;;;;;;5.18;1.40;;;;;;;29.00;44.97;100460.56;8329946;28;20057;-64
2023/07/14 10:31:22;;;;;;;4.95;1.50;;;;;;;28.98;44.86;100452.44;8328071;28;20065;-65
2023/07/14 10:35:26;;;;;;;4.25;1.40;;;;;;;29.87;43.38;100437.69;8329620;28;20072;-65
2023/07/14 10:39:36;;;;;;;3.85;1.70;;;;;;;29.58;44.05;100430.75;8329029;28;20051;-65
2023/07/14 10:43:44;;;;;;;4.22;1.60;;;;;;;30.55;42.62;100425.53;8328996;28;20120;-65
2023/07/14 10:47:52;;;;;;;3.70;1.88;;;;;;;32.06;40.94;100426.56;8330308;28;20107;-65
2023/07/14 10:51:59;;;;;;;3.42;1.38;;;;;;;32.42;39.94;100414.19;8327549;28;20044;-66
2023/07/14 10:56:06;;;;;;;6.60;1.58;;;;;;;32.07;40.63;100403.06;8328379;28;20041;-66
2023/07/14 11:00:19;;;;;;;3.45;1.77;;;;;;;32.91;39.84;100383.41;8324532;28;20092;-64
2023/07/14 11:04:29;;;;;;;15.93;2.20;;;;;;;34.29;37.74;100383.53;8327599;28;20067;-66
2023/07/14 11:08:32;;;;;;;22.42;2.15;;;;;;;34.71;36.59;100376.00;8328621;28;20350;-66
2023/07/14 11:12:57;;;;;;;4.30;2.07;;;;;;;33.32;37.93;100357.56;8332028;28;20037;-66
2023/07/14 11:21:27;;;;;;;3.00;1.80;;;;;;;34.28;36.95;100345.38;8331643;27;20890;-65
2023/07/14 11:25:56;;;;;;;13.20;2.53;;;;;;;35.04;37.23;100343.19;8329732;28;20041;-65
2023/07/14 11:30:00;;;;;;;9.07;2.45;;;;;;;35.93;35.46;100347.53;8328454;28;20124;-65
2023/07/14 11:34:09;;;;;;;;;;;;;;;34.59;36.72;100346.66;8330110;28;20136;-65
2023/07/14 11:38:49;;;;;;;6.70;2.15;;;;;;;34.95;35.90;100353.47;8327716;28;19917;-65
2023/07/14 11:42:55;;;;;;;11.57;2.38;;;;;;;36.02;35.13;100328.78;8328810;28;20115;-64
2023/07/14 11:46:58;;;;;;;8.20;2.05;;;;;;;36.45;34.57;100324.50;8329926;28;20352;-63
2023/07/14 11:55:23;;;;;;;10.77;3.03;;;;;;;34.05;36.87;100318.19;8387720;27;20138;-61
2023/07/14 11:59:26;;;;;;;4.75;1.75;;;;;;;33.77;36.70;100298.25;8380227;27;20115;-63
2023/07/14 12:03:35;;;;;;;10.88;3.10;;;;;;;32.11;39.34;100298.69;8377333;28;20041;-61
2023/07/14 12:07:35;;;;;;;16.05;4.10;;;;;;;31.44;40.08;100306.69;8380026;27;20051;-62
2023/07/14 12:20:24;;;;;;;14.10;2.75;;;;;;;29.77;42.15;100273.16;8341073;27;20946;-60
2023/07/14 12:24:31;;;;;;;11.20;2.33;;;;;;;29.93;42.50;100276.84;8352922;28;20123;-61
2023/07/14 12:28:36;;;;;;;13.23;2.72;;;;;;;29.77;42.59;100262.00;8338133;28;20115;-61
2023/07/14 12:32:36;;;;;;;6.28;1.75;;;;;;;29.70;41.97;100261.41;8342520;28;20129;-64
2023/07/14 12:36:40;;;;;;;7.22;1.92;;;;;;;29.88;42.31;100252.56;8346110;28;20045;-64
2023/07/14 12:40:41;;;;;;;;;;;;;;;29.89;42.54;100254.22;8346582;28;20120;-65
2023/07/14 12:44:42;;;;;;;10.30;2.53;;;;;;;29.76;42.20;100246.38;8345696;28;19932;-64
2023/07/14 12:48:43;;;;;;;8.15;2.20;;;;;;;29.72;42.24;100236.88;8346425;28;20461;-61
2023/07/14 12:52:44;;;;;;;32.03;3.65;;;;;;;29.10;43.49;100224.81;8346152;28;20033;-63
2023/07/14 12:56:45;;;;;;;24.95;1.85;;;;;;;29.11;43.23;100226.47;8344280;28;20044;-62
2023/07/14 13:00:45;;;;;;;11.15;1.70;;;;;;;29.23;42.29;100204.00;8345825;28;20041;-62
2023/07/14 13:04:46;;;;;;;4.97;1.60;;;;;;;28.92;43.19;100211.28;8344912;28;20037;-61
2023/07/14 13:08:49;;;;;;;12.65;1.98;;;;;;;29.38;43.03;100201.28;8345283;28;20514;-62
2023/07/14 13:12:54;;;;;;;13.10;2.13;;;;;;;29.53;43.63;100199.44;8343282;28;20049;-63
2023/07/14 13:16:54;;;;;;;6.38;1.55;;;;;;;28.86;44.03;100198.44;8344586;28;20100;-61
2023/07/14 13:20:56;;;;;;;15.27;1.80;;;;;;;29.10;44.70;100193.34;8345129;28;20057;-60
2023/07/14 13:25:08;;;;;;;3.50;1.02;;;;;;;29.16;44.78;100181.13;8344575;28;20044;-64
2023/07/14 13:29:14;;;;;;;39.50;2.30;;;;;;;29.45;44.68;100172.06;8323587;28;20059;-63
2023/07/14 13:33:15;;;;;;;23.85;2.80;;;;;;;29.84;44.38;100166.94;8322349;28;20037;-62
2023/07/14 13:37:16;;;;;;;6.15;1.92;;;;;;;30.01;44.27;100159.19;8322937;28;20096;-62
2023/07/14 13:41:20;;;;;;;10.45;2.10;;;;;;;30.06;44.11;100151.66;8322519;28;20068;-62
2023/07/14 13:45:31;;;;;;;12.27;1.88;;;;;;;30.35;43.98;100147.25;8329678;28;20041;-62
2023/07/14 13:49:31;;;;;;;14.98;2.45;;;;;;;30.17;43.95;100133.84;8319692;28;20187;-64
2023/07/14 13:53:33;;;;;;;13.50;1.58;;;;;;;29.76;44.67;100143.22;8321832;28;20041;-59
2023/07/14 13:57:33;;;;;;;4.32;1.48;;;;;;;29.27;45.65;100133.53;8321796;28;20095;-65
2023/07/14 14:01:34;;;;;;;11.85;1.63;;;;;;;29.35;44.98;100132.19;8321953;28;20124;-66
2023/07/14 14:05:37;;;;;;;2.30;1.40;;;;;;;29.81;45.84;100118.16;8321784;28;20087;-66
2023/07/14 14:09:38;;;;;;;25.88;2.42;;;;;;;29.99;44.74;100131.59;8302475;28;20037;-66
2023/07/14 14:13:39;;;;;;;6.68;1.60;;;;;;;29.91;44.26;100129.31;8321207;28;20361;-66
2023/07/14 14:17:41;;;;;;;11.35;1.70;;;;;;;29.93;43.56;100121.53;8321421;28;20037;-65
2023/07/14 14:21:41;;;;;;;5.53;1.75;;;;;;;30.14;43.46;100106.50;8321085;28;20041;-62
2023/07/14 14:25:42;;;;;;;6.63;1.58;;;;;;;29.87;43.23;100089.19;8321466;28;20514;-64
2023/07/14 14:29:42;;;;;;;5.78;1.20;;;;;;;29.84;43.46;100084.16;8321808;28;20044;-66
2023/07/14 14:33:43;;;;;;;1.52;0.90;;;;;;;29.87;42.88;100061.28;8320541;28;20461;-66
2023/07/14 14:37:44;;;;;;;13.88;1.83;;;;;;;29.50;44.14;100046.72;8321499;28;20041;-66
2023/07/14 14:41:44;;;;;;;4.05;1.08;;;;;;;29.55;44.63;100024.41;8311451;28;20045;-66
2023/07/14 14:45:46;;;;;;;1.90;0.82;;;;;;;29.56;44.16;100036.41;8350734;28;20192;-66
2023/07/14 14:49:47;;;;;;;8.98;1.30;;;;;;;29.75;44.87;100038.41;8319230;28;20511;-65
2023/07/14 14:53:47;;;;;;;4.07;1.25;;;;;;;29.71;44.30;100034.53;8319909;28;20412;-66
2023/07/14 14:57:53;;;;;;;3.90;1.00;;;;;;;29.71;44.38;100012.22;8320528;28;20044;-65
2023/07/14 15:01:53;;;;;;;1.55;1.13;;;;;;;29.64;44.49;100017.22;8316673;28;20041;-65
2023/07/14 15:05:54;;;;;;;3.72;1.40;;;;;;;29.62;44.07;99999.09;8320013;28;20034;-65
2023/07/14 15:09:55;;;;;;;2.38;1.08;;;;;;;29.68;44.21;99990.47;8318452;28;20021;-66
2023/07/14 15:13:56;;;;;;;3.60;1.13;;;;;;;29.63;44.63;99987.69;8319434;28;20277;-66
2023/07/14 15:17:58;;;;;;;7.20;1.10;;;;;;;29.67;44.46;99988.78;8318337;28;20030;-65
2023/07/14 15:21:59;;;;;;;4.72;1.40;;;;;;;29.67;44.97;99974.84;8315892;28;20092;-65
2023/07/14 15:25:59;;;;;;;3.95;1.33;;;;;;;29.67;44.84;99960.09;8318033;28;20037;-66
2023/07/14 15:30:25;;;;;;;4.03;1.35;;;;;;;29.91;44.70;99958.41;8307731;28;20045;-65
2023/07/14 15:34:25;;;;;;;11.63;1.45;;;;;;;29.56;45.14;99945.28;8314428;28;20457;-65
2023/07/14 15:38:26;;;;;;;3.92;1.20;;;;;;;29.35;45.31;99942.75;8317933;28;20041;-65
2023/07/14 15:42:26;;;;;;;5.50;1.17;;;;;;;29.12;45.62;99932.97;8318384;28;20140;-65
2023/07/14 15:46:27;;;;;;;2.00;0.93;;;;;;;29.11;45.71;99922.94;8318091;28;20777;-65
2023/07/14 15:50:28;;;;;;;7.40;1.30;;;;;;;29.04;45.83;99910.38;8317747;28;20830;-65
2023/07/14 15:54:32;;;;;;;6.75;1.35;;;;;;;29.02;46.15;99902.28;8317287;28;20510;-65
2023/07/14 15:58:33;;;;;;;5.07;0.95;;;;;;;29.15;46.39;99899.00;8317118;28;20046;-65
2023/07/14 16:02:33;;;;;;;2.50;1.30;;;;;;;29.11;46.10;99886.75;8317309;28;20148;-65
2023/07/14 16:06:38;;;;;;;5.03;1.20;;;;;;;29.04;46.28;99861.13;8315606;28;20030;-66
2023/07/14 16:10:38;;;;;;;2.78;1.33;;;;;;;29.34;45.81;99865.88;8303216;28;20136;-65
2023/07/14 16:14:39;;;;;;;2.17;1.10;;;;;;;29.44;45.79;99857.53;8315733;28;20034;-65
2023/07/14 16:18:39;;;;;;;2.53;1.00;;;;;;;29.58;45.09;99845.50;8316877;28;20292;-66
2023/07/14 16:22:47;;;;;;;6.07;1.92;;;;;;;29.74;44.83;99827.72;8316144;28;20398;-65
2023/07/14 16:26:50;;;;;;;2.90;1.17;;;;;;;29.64;44.47;99826.88;8314845;28;20076;-65
2023/07/14 16:30:51;;;;;;;4.10;1.17;;;;;;;29.51;44.73;99817.09;8316862;28;20411;-65
2023/07/14 16:34:52;;;;;;;3.85;1.20;;;;;;;29.69;44.83;99813.78;8317165;28;20371;-66
2023/07/14 16:39:11;;;;;;;2.70;1.25;;;;;;;29.89;43.49;99802.53;8317707;28;20048;-65
2023/07/14 16:43:11;;;;;;;3.60;1.15;;;;;;;29.85;43.59;99795.88;8317686;28;20136;-66
2023/07/14 16:47:13;;;;;;;3.78;1.23;;;;;;;29.77;43.51;99790.91;8317353;28;20037;-66
2023/07/14 16:51:14;;;;;;;7.97;2.03;;;;;;;29.60;43.46;99798.72;8317385;28;20087;-66
2023/07/14 16:55:22;;;;;;;3.88;1.25;;;;;;;29.69;43.31;99791.47;8316319;28;20096;-65
2023/07/14 16:59:23;;;;;;;6.38;1.58;;;;;;;29.81;43.10;99783.63;8313850;28;20045;-66
2023/07/14 17:03:27;;;;;;;5.55;1.73;;;;;;;29.77;42.78;99782.53;8316923;28;20041;-66
2023/07/14 17:07:28;;;;;;;5.38;1.25;;;;;;;29.79;42.82;99763.56;8323535;28;20041;-66
2023/07/14 17:11:29;;;;;;;3.35;1.52;;;;;;;29.75;42.70;99773.63;8322122;28;20044;-66
2023/07/14 17:15:29;;;;;;;4.80;1.38;;;;;;;29.66;43.09;99771.69;8318383;28;20056;-66
2023/07/14 17:19:30;;;;;;;3.08;1.75;;;;;;;29.69;42.57;99774.75;8322482;28;20048;-66
2023/07/14 17:23:36;;;;;;;5.15;1.38;;;;;;;29.78;42.41;99761.91;8322101;28;20912;-66
2023/07/14 17:27:37;;;;;;;3.58;1.40;;;;;;;29.80;42.84;99765.25;8322690;28;20111;-66
2023/07/14 17:31:38;;;;;;;6.60;1.60;;;;;;;29.55;43.41;99767.25;8322369;28;20052;-66
2023/07/14 17:35:38;;;;;;;3.13;1.23;;;;;;;29.44;42.37;99772.00;8321984;28;20491;-66
2023/07/14 17:39:43;;;;;;;2.67;1.13;;;;;;;29.46;42.43;99764.16;8322303;28;20292;-66
2023/07/14 17:43:44;;;;;;;2.65;1.60;;;;;;;29.47;42.26;99759.44;8321971;28;20044;-66
2023/07/14 17:47:45;;;;;;;2.13;1.10;;;;;;;29.58;41.53;99761.91;8314770;28;20037;-66
2023/07/14 17:51:48;;;;;;;1.63;1.13;;;;;;;29.52;41.39;99767.81;8319208;28;20052;-66
2023/07/14 17:55:49;;;;;;;5.30;1.10;;;;;;;29.52;40.96;99768.63;8318291;28;20046;-66
2023/07/14 17:59:50;;;;;;;5.32;1.50;;;;;;;29.49;41.08;99762.78;8312953;28;20781;-66
2023/07/14 18:03:50;;;;;;;2.30;1.05;;;;;;;29.26;41.78;99772.56;8315485;28;20123;-66
2023/07/14 18:07:53;;;;;;;4.53;1.10;;;;;;;29.10;42.78;99776.50;8320766;28;20041;-61
2023/07/14 18:11:55;;;;;;;3.53;1.00;;;;;;;29.09;42.45;99760.88;8321078;28;20326;-69
2023/07/14 18:15:56;;;;;;;3.15;1.10;;;;;;;29.05;42.69;99754.22;8318662;28;20203;-69
2023/07/14 18:19:56;;;;;;;2.25;1.00;;;;;;;29.01;42.29;99755.88;8320611;28;20049;-69
2023/07/14 18:23:57;;;;;;;2.70;1.57;;;;;;;29.06;42.58;99752.28;8319775;28;20094;-69
2023/07/14 18:27:57;;;;;;;3.75;1.10;;;;;;;29.11;42.50;99749.47;8318897;28;20280;-69
2023/07/14 18:31:58;;;;;;;3.03;1.25;;;;;;;28.88;43.00;99750.88;8319387;28;20037;-69
2023/07/14 18:35:58;;;;;;;2.03;1.00;;;;;;;28.86;43.19;99753.06;8318543;28;20041;-69
2023/07/14 18:39:59;;;;;;;1.85;1.05;;;;;;;28.84;43.62;99760.84;8320984;28;20265;-69
2023/07/14 18:43:59;;;;;;;2.70;1.20;;;;;;;28.56;43.78;99764.19;8321131;28;20065;-69
2023/07/14 18:48:15;;;;;;;4.53;1.13;;;;;;;28.49;46.31;99766.41;8318617;28;20546;-62
2023/07/14 18:52:15;;;;;;;4.72;1.17;;;;;;;28.45;43.85;99762.47;8317423;28;20064;-67
2023/07/14 18:56:18;;;;;;;4.60;1.20;;;;;;;28.32;44.29;99762.97;8319273;28;20124;-67
2023/07/14 19:00:21;;;;;;;3.53;1.33;;;;;;;28.25;44.49;99762.41;8317215;28;20052;-67
2023/07/14 19:04:22;;;;;;;6.53;1.43;;;;;;;28.04;45.35;99755.94;8319046;28;20064;-67
2023/07/14 19:08:23;;;;;;;3.90;1.02;;;;;;;27.86;45.92;99752.81;8316904;28;20538;-67
2023/07/14 19:12:24;;;;;;;3.72;1.27;;;;;;;27.74;45.59;99750.22;8318471;28;20100;-67
2023/07/14 19:16:26;;;;;;;3.63;1.23;;;;;;;27.57;46.36;99751.53;8319792;28;20500;-67